createdAt,value
2023-02-11T00:00:17.287Z,51.03
2023-02-11T00:02:49.852Z,40.45
2023-02-11T00:05:22.371Z,57.22
2023-02-11T00:07:54.924Z,16.73
2023-02-11T00:10:27.426Z,17.30
2023-02-11T00:12:59.975Z,18.15
2023-02-11T00:15:32.442Z,54.80
2023-02-11T00:18:05.034Z,23.55
2023-02-11T00:20:39.878Z,18.17
2023-02-11T00:23:12.933Z,14.40
2023-02-11T00:25:45.986Z,15.25
2023-02-11T00:28:18.552Z,17.90
2023-02-11T00:30:58.283Z,17.33
2023-02-11T00:33:30.866Z,12.93
2023-02-11T00:36:10.335Z,10.80
2023-02-11T00:38:44.786Z,14.57
2023-02-11T00:41:18.552Z,16.60
2023-02-11T00:43:51.760Z,16.83
2023-02-11T00:46:24.625Z,12.73
2023-02-11T00:48:57.981Z,20.13
2023-02-11T00:51:30.835Z,14.60
2023-02-11T00:54:05.377Z,13.68
2023-02-11T00:56:38.063Z,10.90
2023-02-11T00:59:10.681Z,13.35
2023-02-11T01:01:43.427Z,11.73
2023-02-11T01:04:16.069Z,15.23
2023-02-11T01:06:48.692Z,10.77
2023-02-11T01:09:21.301Z,10.93
2023-02-11T01:11:53.793Z,14.60
2023-02-11T01:14:26.396Z,10.13
2023-02-11T01:16:58.990Z,14.00
2023-02-11T01:19:31.595Z,12.70
2023-02-11T01:22:05.288Z,16.98
2023-02-11T01:24:37.954Z,39.63
2023-02-11T01:27:10.461Z,20.85
2023-02-11T01:29:43.079Z,21.52
2023-02-11T01:32:15.714Z,15.15
2023-02-11T01:34:48.389Z,18.38
2023-02-11T01:37:21.008Z,16.00
2023-02-11T01:39:53.757Z,12.07
2023-02-11T01:42:26.369Z,70.57
2023-02-11T01:45:21.945Z,63.42
2023-02-11T01:47:54.504Z,23.88
2023-02-11T01:50:27.134Z,18.33
2023-02-11T01:53:20.012Z,20.08
2023-02-11T01:56:13.552Z,15.32
2023-02-11T01:58:51.518Z,16.17
2023-02-11T02:01:27.571Z,18.20
2023-02-11T02:04:06.052Z,13.35
2023-02-11T02:06:55.973Z,12.75
2023-02-11T02:09:36.761Z,9.93
2023-02-11T02:12:10.109Z,13.60
2023-02-11T02:14:43.134Z,13.40
2023-02-11T02:17:43.066Z,10.68
2023-02-11T02:20:52.924Z,10.85
2023-02-11T02:24:09.056Z,10.40
2023-02-11T02:27:03.662Z,10.73
2023-02-11T02:30:25.959Z,10.38
2023-02-11T02:33:24.794Z,15.73
2023-02-11T02:36:34.418Z,10.73
2023-02-11T02:39:15.659Z,10.23
2023-02-11T02:41:50.858Z,14.05
2023-02-11T02:44:24.653Z,14.77
2023-02-11T02:46:58.053Z,12.15
2023-02-11T02:49:30.636Z,9.18
2023-02-11T02:52:57.176Z,9.38
2023-02-11T02:55:47.952Z,15.68
2023-02-11T02:58:54.038Z,16.63
2023-02-11T03:02:06.691Z,10.52
2023-02-11T03:04:57.544Z,18.13
2023-02-11T03:07:47.416Z,11.48
2023-02-11T03:10:28.137Z,8.45
2023-02-11T03:13:03.717Z,13.13
2023-02-11T03:15:46.069Z,8.68
2023-02-11T03:18:25.033Z,10.20
2023-02-11T03:20:59.942Z,12.98
2023-02-11T03:23:41.342Z,14.23
2023-02-11T03:26:43.754Z,17.50
2023-02-11T03:29:49.320Z,13.55
2023-02-11T03:32:50.997Z,13.30
2023-02-11T03:35:35.439Z,15.75
2023-02-11T03:38:21.565Z,16.00
2023-02-11T03:40:56.609Z,10.95
2023-02-11T03:43:38.799Z,12.52
2023-02-11T03:46:18.124Z,8.02
2023-02-11T03:48:58.722Z,17.05
2023-02-11T03:51:33.800Z,10.82
2023-02-11T03:54:14.682Z,15.13
2023-02-11T03:56:56.469Z,13.93
2023-02-11T03:59:29.364Z,13.40
2023-02-11T04:02:02.016Z,15.82
2023-02-11T04:04:34.566Z,16.00
2023-02-11T04:07:07.098Z,13.13
2023-02-11T04:09:39.676Z,6.90
2023-02-11T04:12:12.405Z,13.10
2023-02-11T04:14:45.266Z,8.85
2023-02-11T04:17:18.567Z,12.07
2023-02-11T04:19:51.179Z,14.25
2023-02-11T04:22:23.779Z,8.15
2023-02-11T04:24:56.565Z,9.90
2023-02-11T04:27:29.164Z,13.27
2023-02-11T04:30:02.089Z,12.07
2023-02-11T04:32:34.822Z,12.27
2023-02-11T04:35:07.982Z,13.65
2023-02-11T04:37:40.832Z,9.88
2023-02-11T04:40:13.524Z,19.67
2023-02-11T04:42:46.125Z,11.45
2023-02-11T04:45:18.677Z,10.23
2023-02-11T04:47:51.310Z,12.98
2023-02-11T04:50:24.256Z,11.10
2023-02-11T04:52:56.926Z,11.90
2023-02-11T04:55:29.630Z,11.23
2023-02-11T04:58:02.267Z,15.75
2023-02-11T05:00:34.890Z,14.93
2023-02-11T05:03:07.393Z,18.55
2023-02-11T05:05:41.598Z,11.35
2023-02-11T05:08:14.186Z,11.10
2023-02-11T05:10:48.017Z,11.63
2023-02-11T05:13:20.592Z,8.70
2023-02-11T05:15:53.450Z,11.10
2023-02-11T05:18:26.237Z,18.80
2023-02-11T05:20:58.853Z,10.75
2023-02-11T05:23:31.449Z,13.32
2023-02-11T05:26:04.949Z,12.35
2023-02-11T05:28:40.409Z,14.27
2023-02-11T05:31:14.581Z,15.73
2023-02-11T05:33:47.358Z,15.45
2023-02-11T05:36:20.019Z,11.80
2023-02-11T05:38:52.525Z,16.27
2023-02-11T05:41:25.186Z,11.57
2023-02-11T05:43:57.786Z,12.60
2023-02-11T05:46:30.438Z,10.68
2023-02-11T05:49:03.929Z,11.50
2023-02-11T05:51:36.953Z,13.32
2023-02-11T05:54:09.697Z,10.65
2023-02-11T05:56:44.835Z,14.25
2023-02-11T05:59:17.635Z,15.82
2023-02-11T06:01:50.220Z,17.75
2023-02-11T06:04:22.863Z,16.55
2023-02-11T06:06:55.393Z,19.40
2023-02-11T06:09:28.019Z,16.20
2023-02-11T06:12:00.599Z,11.02
2023-02-11T06:14:34.216Z,16.02
2023-02-11T06:17:07.102Z,14.85
2023-02-11T06:19:39.690Z,10.57
2023-02-11T06:22:12.334Z,14.82
2023-02-11T06:25:00.225Z,19.13
2023-02-11T06:27:33.795Z,17.60
2023-02-11T06:30:08.138Z,26.83
2023-02-11T06:32:45.402Z,16.80
2023-02-11T06:35:18.565Z,20.65
2023-02-11T06:37:53.756Z,12.88
2023-02-11T06:40:26.383Z,14.18
2023-02-11T06:43:00.141Z,15.38
2023-02-11T06:45:32.814Z,23.75
2023-02-11T06:48:05.632Z,17.15
2023-02-11T06:50:38.423Z,17.38
2023-02-11T06:53:11.049Z,20.90
2023-02-11T06:55:43.742Z,14.57
2023-02-11T06:58:16.323Z,17.10
2023-02-11T07:00:48.853Z,14.02
2023-02-11T07:03:21.458Z,20.83
2023-02-11T07:05:53.994Z,17.00
2023-02-11T07:08:26.806Z,22.63
2023-02-11T07:10:59.499Z,19.75
2023-02-11T07:13:32.093Z,16.08
2023-02-11T07:16:12.405Z,20.95
2023-02-11T07:18:46.916Z,31.45
2023-02-11T07:21:22.334Z,21.98
2023-02-11T07:23:54.954Z,26.50
2023-02-11T07:26:28.923Z,30.65
2023-02-11T07:29:02.056Z,24.63
2023-02-11T07:31:34.677Z,28.80
2023-02-11T07:34:07.340Z,21.30
2023-02-11T07:36:40.023Z,25.50
2023-02-11T07:39:12.879Z,25.35
2023-02-11T07:41:47.738Z,28.13
2023-02-11T07:44:20.320Z,27.67
2023-02-11T07:46:53.261Z,25.98
2023-02-11T07:49:25.807Z,34.22
2023-02-11T07:51:58.315Z,26.92
2023-02-11T07:54:30.848Z,25.90
2023-02-11T07:57:03.601Z,30.33
2023-02-11T07:59:36.111Z,29.05
2023-02-11T08:02:10.359Z,28.92
2023-02-11T08:04:43.063Z,25.15
2023-02-11T08:07:17.590Z,25.55
2023-02-11T08:09:50.193Z,27.83
2023-02-11T08:12:22.696Z,34.75
2023-02-11T08:14:56.240Z,32.58
2023-02-11T08:17:28.804Z,35.22
2023-02-11T08:20:01.568Z,37.05
2023-02-11T08:22:34.824Z,31.73
2023-02-11T08:25:07.825Z,35.42
2023-02-11T08:27:40.394Z,34.65
2023-02-11T08:30:14.129Z,27.23
2023-02-11T08:32:47.453Z,40.10
2023-02-11T08:35:20.048Z,37.80
2023-02-11T08:37:53.231Z,33.42
2023-02-11T08:40:25.801Z,37.63
2023-02-11T08:42:58.300Z,41.17
2023-02-11T08:45:30.919Z,39.58
2023-02-11T08:48:03.566Z,35.80
2023-02-11T08:50:39.847Z,39.75
2023-02-11T08:53:12.492Z,38.70
2023-02-11T08:55:51.250Z,48.67
2023-02-11T08:58:24.023Z,39.67
2023-02-11T09:00:56.769Z,35.55
2023-02-11T09:03:29.715Z,34.58
2023-02-11T09:06:06.808Z,29.50
2023-02-11T09:08:45.278Z,32.70
2023-02-11T09:11:21.924Z,32.20
2023-02-11T09:13:54.829Z,35.28
2023-02-11T09:16:31.940Z,33.10
2023-02-11T09:19:05.647Z,35.67
2023-02-11T09:21:38.330Z,36.47
2023-02-11T09:24:11.516Z,39.63
2023-02-11T09:26:44.325Z,33.38
2023-02-11T09:29:17.012Z,33.58
2023-02-11T09:31:50.280Z,31.95
2023-02-11T09:34:23.066Z,31.63
2023-02-11T09:36:55.669Z,41.92
2023-02-11T09:39:29.293Z,38.10
2023-02-11T09:42:37.949Z,33.92
2023-02-11T09:45:28.428Z,36.97
2023-02-11T09:48:34.684Z,37.80
2023-02-11T09:51:20.625Z,34.33
2023-02-11T09:54:02.153Z,35.25
2023-02-11T09:56:36.783Z,33.90
2023-02-11T09:59:17.647Z,32.47
2023-02-11T10:02:02.382Z,33.33
2023-02-11T10:04:56.295Z,35.53
2023-02-11T10:07:46.193Z,31.90
2023-02-11T10:10:47.423Z,43.70
2023-02-11T10:13:46.983Z,37.28
2023-02-11T10:16:22.525Z,30.73
2023-02-11T10:19:21.376Z,40.78
2023-02-11T10:22:25.476Z,34.05
2023-02-11T10:25:00.432Z,38.25
2023-02-11T10:27:36.556Z,35.83
2023-02-11T10:30:40.845Z,42.05
2023-02-11T10:33:23.613Z,39.42
2023-02-11T10:35:56.286Z,41.40
2023-02-11T10:38:28.879Z,37.72
2023-02-11T10:41:01.383Z,38.42
2023-02-11T10:43:34.964Z,43.38
2023-02-11T10:46:19.271Z,39.30
2023-02-11T10:48:53.779Z,35.90
2023-02-11T10:51:34.224Z,36.42
2023-02-11T10:54:08.243Z,38.60
2023-02-11T10:56:58.835Z,37.72
2023-02-11T10:59:40.426Z,41.03
2023-02-11T11:02:34.428Z,40.13
2023-02-11T11:05:18.841Z,42.30
2023-02-11T11:07:59.616Z,36.17
2023-02-11T11:10:46.509Z,38.83
2023-02-11T11:13:35.673Z,46.35
2023-02-11T11:16:29.230Z,40.10
2023-02-11T11:19:08.060Z,37.60
2023-02-11T11:21:44.118Z,35.10
2023-02-11T11:24:31.272Z,38.40
2023-02-11T11:27:05.309Z,37.50
2023-02-11T11:29:46.039Z,35.83
2023-02-11T11:32:23.979Z,41.33
2023-02-11T11:35:08.455Z,40.97
2023-02-11T11:37:42.306Z,32.35
2023-02-11T11:40:25.653Z,34.08
2023-02-11T11:43:23.065Z,40.05
2023-02-11T11:45:59.707Z,36.70
2023-02-11T11:48:46.875Z,37.40
2023-02-11T11:51:19.985Z,33.83
2023-02-11T11:54:12.117Z,32.33
2023-02-11T11:57:00.524Z,34.50
2023-02-11T11:59:33.214Z,39.97
2023-02-11T12:02:26.439Z,34.65
2023-02-11T12:05:16.009Z,37.25
2023-02-11T12:08:04.281Z,38.00
2023-02-11T12:11:10.631Z,34.13
2023-02-11T12:14:27.121Z,30.45
2023-02-11T12:17:38.853Z,39.00
2023-02-11T12:20:36.372Z,35.00
2023-02-11T12:24:06.394Z,31.20
2023-02-11T12:26:52.290Z,28.73
2023-02-11T12:29:47.724Z,35.08
2023-02-11T12:35:43.129Z,28.52
2023-02-11T12:38:46.943Z,33.08
2023-02-11T12:42:00.999Z,28.98
2023-02-11T12:45:02.980Z,25.15
2023-02-11T12:51:20.918Z,35.03
2023-02-11T12:54:21.708Z,31.95
2023-02-11T12:57:30.981Z,30.17
2023-02-11T13:00:33.743Z,31.38
2023-02-11T13:03:29.624Z,31.38
2023-02-11T13:06:13.186Z,34.53
2023-02-11T13:08:51.320Z,31.85
2023-02-11T13:11:29.557Z,29.90
2023-02-11T13:14:24.435Z,41.22
2023-02-11T13:16:58.670Z,34.63
2023-02-11T13:19:49.099Z,28.48
2023-02-11T13:22:38.549Z,27.73
2023-02-11T13:25:43.194Z,28.13
2023-02-11T13:28:48.307Z,31.10
2023-02-11T13:31:21.077Z,26.85
2023-02-11T13:33:54.312Z,32.53
2023-02-11T13:36:32.740Z,36.58
2023-02-11T13:39:06.794Z,29.20
2023-02-11T13:41:41.893Z,25.75
2023-02-11T13:44:19.244Z,31.42
2023-02-11T13:47:08.009Z,23.77
2023-02-11T13:52:34.893Z,27.10
2023-02-11T13:55:13.536Z,25.45
2023-02-11T13:58:06.160Z,29.05
2023-02-11T14:00:38.662Z,25.83
2023-02-11T14:03:29.792Z,31.77
2023-02-11T14:06:26.805Z,28.10
2023-02-11T14:09:14.633Z,30.10
2023-02-11T14:11:52.212Z,22.35
2023-02-11T14:14:32.079Z,23.92
2023-02-11T14:17:07.708Z,23.98
2023-02-11T14:19:47.194Z,26.50
2023-02-11T14:22:27.725Z,25.80
2023-02-11T14:25:18.374Z,23.92
2023-02-11T14:27:59.225Z,25.17
2023-02-11T14:30:53.874Z,23.50
2023-02-11T14:34:37.965Z,27.23
2023-02-11T14:37:30.192Z,23.73
2023-02-11T14:40:29.342Z,22.98
2023-02-11T14:43:29.851Z,26.65
2023-02-11T14:46:03.318Z,26.25
2023-02-11T14:48:43.173Z,25.02
2023-02-11T14:51:26.554Z,30.23
2023-02-11T14:54:13.373Z,24.42
2023-02-11T14:56:46.769Z,24.23
2023-02-11T14:59:22.871Z,25.27
2023-02-11T15:01:55.480Z,23.50
2023-02-11T15:04:33.009Z,24.13
2023-02-11T15:07:10.620Z,23.13
2023-02-11T15:09:49.494Z,24.25
2023-02-11T15:12:28.326Z,26.60
2023-02-11T15:15:01.356Z,20.15
2023-02-11T15:17:34.127Z,23.90
2023-02-11T15:20:15.802Z,23.45
2023-02-11T15:22:59.655Z,22.42
2023-02-11T15:25:34.151Z,23.55
2023-02-11T15:28:23.976Z,20.25
2023-02-11T15:31:17.288Z,20.10
2023-02-11T15:33:51.822Z,20.83
2023-02-11T15:36:28.812Z,22.23
2023-02-11T15:39:37.435Z,25.35
2023-02-11T15:42:40.766Z,21.70
2023-02-11T15:45:20.510Z,18.60
2023-02-11T15:47:59.231Z,22.45
2023-02-11T15:50:37.149Z,25.73
2023-02-11T15:53:37.048Z,30.02
2023-02-11T15:56:24.361Z,22.05
2023-02-11T15:59:01.209Z,24.52
2023-02-11T16:01:37.213Z,22.48
2023-02-11T16:06:51.563Z,21.73
2023-02-11T16:09:31.484Z,16.98
2023-02-11T16:12:27.100Z,22.45
2023-02-11T16:15:03.835Z,20.65
2023-02-11T16:17:36.430Z,24.52
2023-02-11T16:20:19.471Z,25.48
2023-02-11T16:22:52.641Z,22.88
2023-02-11T16:25:25.257Z,32.35
2023-02-11T16:27:58.071Z,22.83
2023-02-11T16:30:40.615Z,26.40
2023-02-11T16:33:13.317Z,27.40
2023-02-11T16:35:47.658Z,24.20
2023-02-11T16:38:20.239Z,21.38
2023-02-11T16:40:53.074Z,18.38
2023-02-11T16:43:25.864Z,26.92
2023-02-11T16:45:58.977Z,21.75
2023-02-11T16:48:32.746Z,28.17
2023-02-11T16:51:08.013Z,25.48
2023-02-11T16:53:40.700Z,23.83
2023-02-11T16:56:18.354Z,25.85
2023-02-11T16:58:51.014Z,27.08
2023-02-11T17:01:23.700Z,41.25
2023-02-11T17:03:56.356Z,26.10
2023-02-11T17:06:29.149Z,47.40
2023-02-11T17:09:02.119Z,31.15
2023-02-11T17:11:34.623Z,38.35
2023-02-11T17:14:07.102Z,30.52
2023-02-11T17:16:40.312Z,25.27
2023-02-11T17:19:16.052Z,34.42
2023-02-11T17:21:52.030Z,34.58
2023-02-11T17:24:24.586Z,24.27
2023-02-11T17:26:57.374Z,25.48
2023-02-11T17:29:30.043Z,22.42
2023-02-11T17:32:02.625Z,22.80
2023-02-11T17:34:35.399Z,16.17
2023-02-11T17:37:09.379Z,18.02
2023-02-11T17:39:42.144Z,19.63
2023-02-11T17:42:14.823Z,23.60
2023-02-11T17:44:47.410Z,20.85
2023-02-11T17:47:20.024Z,18.25
2023-02-11T17:49:52.597Z,23.73
2023-02-11T17:52:27.835Z,20.98
2023-02-11T17:55:00.557Z,20.85
2023-02-11T17:57:33.516Z,19.33
2023-02-11T18:00:08.084Z,17.17
2023-02-11T18:02:40.716Z,22.45
2023-02-11T18:05:13.208Z,25.42
2023-02-11T18:07:46.272Z,23.48
2023-02-11T18:10:19.035Z,28.10
2023-02-11T18:12:51.544Z,24.10
2023-02-11T18:15:24.159Z,21.52
2023-02-11T18:17:56.761Z,20.50
2023-02-11T18:20:29.351Z,34.25
2023-02-11T18:23:02.681Z,20.75
2023-02-11T18:25:35.594Z,18.60
2023-02-11T18:28:08.390Z,25.42
2023-02-11T18:30:40.932Z,23.45
2023-02-11T18:33:14.520Z,18.85
2023-02-11T18:35:49.017Z,19.88
2023-02-11T18:38:23.090Z,20.98
2023-02-11T18:40:58.451Z,22.20
2023-02-11T18:43:33.707Z,19.95
2023-02-11T18:46:10.622Z,24.80
2023-02-11T18:48:44.865Z,21.08
2023-02-11T18:51:18.776Z,20.98
2023-02-11T18:53:52.211Z,23.42
2023-02-11T18:56:27.795Z,21.65
2023-02-11T18:59:01.378Z,18.35
2023-02-11T19:01:34.566Z,23.42
2023-02-11T19:04:07.281Z,20.75
2023-02-11T19:06:39.828Z,18.92
2023-02-11T19:09:17.037Z,20.70
2023-02-11T19:11:54.036Z,15.02
2023-02-11T19:14:31.554Z,15.40
2023-02-11T19:17:07.373Z,20.50
2023-02-11T19:19:41.018Z,18.38
2023-02-11T19:22:13.784Z,21.15
2023-02-11T19:24:46.538Z,18.00
2023-02-11T19:27:19.143Z,21.67
2023-02-11T19:29:51.616Z,33.47
2023-02-11T19:32:24.302Z,45.70
2023-02-11T19:34:56.780Z,28.15
2023-02-11T19:37:29.262Z,15.20
2023-02-11T19:40:01.906Z,15.32
2023-02-11T19:42:34.637Z,20.27
2023-02-11T19:45:08.254Z,16.45
2023-02-11T19:47:40.842Z,20.98
2023-02-11T19:50:13.419Z,17.77
2023-02-11T19:52:45.969Z,15.50
2023-02-11T19:55:18.753Z,19.67
2023-02-11T19:57:51.258Z,22.70
2023-02-11T20:00:23.874Z,14.98
2023-02-11T20:02:56.520Z,16.70
2023-02-11T20:05:29.141Z,18.40
2023-02-11T20:08:01.638Z,21.83
2023-02-11T20:10:34.853Z,22.80
2023-02-11T20:13:07.345Z,18.58
2023-02-11T20:15:40.016Z,20.27
2023-02-11T20:18:12.708Z,15.05
2023-02-11T20:20:45.299Z,17.42
2023-02-11T20:23:17.955Z,15.52
2023-02-11T20:25:50.871Z,18.92
2023-02-11T20:28:23.666Z,20.70
2023-02-11T20:30:59.975Z,30.67
2023-02-11T20:33:34.807Z,16.83
2023-02-11T20:36:10.628Z,15.13
2023-02-11T20:38:44.133Z,14.98
2023-02-11T20:41:32.460Z,14.65
2023-02-11T20:44:08.575Z,16.75
2023-02-11T20:49:23.943Z,15.48
2023-02-11T20:51:58.432Z,12.95
2023-02-11T20:54:31.227Z,25.27
2023-02-11T20:57:04.128Z,16.38
2023-02-11T20:59:36.721Z,17.17
2023-02-11T21:02:10.328Z,22.27
2023-02-11T21:04:43.097Z,19.60
2023-02-11T21:07:16.023Z,29.02
2023-02-11T21:09:48.582Z,19.50
2023-02-11T21:12:21.204Z,43.63
2023-02-11T21:14:54.846Z,17.45
2023-02-11T21:17:27.577Z,38.75
2023-02-11T21:20:00.135Z,20.50
2023-02-11T21:22:32.758Z,20.23
2023-02-11T21:25:06.115Z,29.60
2023-02-11T21:27:38.743Z,29.30
2023-02-11T21:30:13.036Z,20.85
2023-02-11T21:32:45.706Z,20.13
2023-02-11T21:35:18.256Z,18.67
2023-02-11T21:37:51.127Z,23.95
2023-02-11T21:40:27.430Z,17.70
2023-02-11T21:43:00.019Z,17.98
2023-02-11T21:45:32.777Z,11.45
2023-02-11T21:48:05.462Z,11.38
2023-02-11T21:50:43.352Z,13.68
2023-02-11T21:53:16.034Z,11.75
2023-02-11T21:55:51.146Z,12.05
2023-02-11T21:58:23.937Z,10.15
2023-02-11T22:00:56.602Z,11.30
2023-02-11T22:03:29.168Z,12.90
2023-02-11T22:06:10.548Z,10.93
2023-02-11T22:08:43.394Z,11.77
2023-02-11T22:11:16.692Z,10.75
2023-02-11T22:13:57.769Z,12.02
2023-02-11T22:16:31.655Z,14.18
2023-02-11T22:19:06.033Z,23.48
2023-02-11T22:21:39.163Z,26.73
2023-02-11T22:24:11.846Z,15.48
2023-02-11T22:26:44.617Z,12.65
2023-02-11T22:29:17.302Z,17.88
2023-02-11T22:31:50.013Z,11.77
2023-02-11T22:34:22.532Z,9.13
2023-02-11T22:36:55.345Z,10.15
2023-02-11T22:39:29.372Z,10.95
2023-02-11T22:42:02.012Z,11.95
2023-02-11T22:44:34.482Z,19.23
2023-02-11T22:47:07.064Z,67.07
2023-02-11T22:49:41.300Z,16.35
2023-02-11T22:52:13.929Z,12.00
2023-02-11T22:54:46.510Z,13.32
2023-02-11T22:57:19.168Z,12.20
2023-02-11T22:59:51.696Z,13.25
2023-02-11T23:02:24.486Z,13.75
2023-02-11T23:04:57.057Z,12.82
2023-02-11T23:07:29.827Z,11.77
2023-02-11T23:10:02.388Z,10.57
2023-02-11T23:12:34.956Z,13.65
2023-02-11T23:15:08.143Z,18.73
2023-02-11T23:17:40.769Z,31.55
2023-02-11T23:20:13.593Z,33.88
2023-02-11T23:22:46.232Z,39.22
2023-02-11T23:25:18.775Z,54.30
2023-02-11T23:27:51.322Z,33.17
2023-02-11T23:30:24.264Z,12.02
2023-02-11T23:32:56.789Z,19.17
2023-02-11T23:35:29.361Z,16.02
2023-02-11T23:38:02.266Z,11.82
2023-02-11T23:40:34.919Z,14.07
2023-02-11T23:43:07.575Z,8.82
2023-02-11T23:45:40.127Z,10.50
2023-02-11T23:48:12.699Z,10.57
2023-02-11T23:50:47.675Z,10.60
2023-02-11T23:53:20.584Z,13.38
2023-02-11T23:55:53.671Z,13.15
2023-02-11T23:58:26.398Z,9.60
